Terminal Aerodrome Forecast
Issued by NWS

Home | Current Version | Previous Version | Text Only | Print | Product List | Glossary On
Versions: 1 2 3 4 5 6 7 8 9 10 11 12
000
FTUS45 KGJT 172332
TAFMTJ
TAF
KMTJ 172332Z 1800/1824 26010G20KT P6SM SCT250
     FM180200 14006KT P6SM SCT250
     FM181500 VRB03KT P6SM SCT250
     FM181900 24010G20KT P6SM FEW070 SCT120=

USA.gov is the U.S. government's official web portal to all federal, state and local government web resources and services.